VOML/IXE METAR and TAF weather

Enter ICAO airport designator
Station Type Date Time Source
VOML METAR 2021/09/16 21:00 UTC NOAA

VOML 162100Z 00000KT 6000 FEW012 26/23 Q1007 NOSIG


Station Type Date Time Source
VOML Decoded METAR 2021/09/16 21:00 UTC NOAA

Mangalore / Bajpe, India (VOML) 12-55N 074-53E 102M
Sep 16, 2021 - 05:00 PM EDT / 2021.09.16 2100 UTC
Wind: Calm:0
Visibility: 3 mile(s):0
Sky conditions: mostly clear
Temperature: 78 F (26 C)
Dew Point: 73 F (23 C)
Relative Humidity: 83%
Pressure (altimeter): 29.74 in. Hg (1007 hPa)
ob: VOML 162100Z 00000KT 6000 FEW012 26/23 Q1007 NOSIG
cycle: 21

Station Type Date Time Source
VOML TAF 2021/09/16 18:00 UTC NOAA

TAF VOML 161700Z 1618/1724 VRB02KT 4000 BR SCT005 SCT012 BKN080
TEMPO 1622/1703 0800 FG SCT005 SCT012 BKN080
BECMG 1706/1707 27010KT 6000 SCT012 SCT080
BECMG 1715/1716 VRB02KT

Example: see airport list